createdAt,value
2018-01-27T00:02:02.108Z,115.20
2018-01-27T00:04:29.028Z,103.43
2018-01-27T00:06:55.203Z,98.13
2018-01-27T00:09:21.499Z,108.77
2018-01-27T00:11:48.416Z,97.97
2018-01-27T00:14:14.625Z,106.47
2018-01-27T00:16:40.835Z,110.43
2018-01-27T00:19:07.023Z,110.50
2018-01-27T00:21:33.244Z,107.80
2018-01-27T00:23:59.420Z,109.73
2018-01-27T00:26:25.631Z,115.53
2018-01-27T00:28:51.823Z,108.83
2018-01-27T00:31:18.095Z,109.67
2018-01-27T00:33:44.294Z,99.73
2018-01-27T00:36:11.186Z,103.40
2018-01-27T00:38:37.351Z,110.77
2018-01-27T00:41:03.564Z,94.47
2018-01-27T00:43:29.751Z,101.83
2018-01-27T00:45:55.946Z,106.47
2018-01-27T00:48:22.898Z,109.00
2018-01-27T00:50:49.796Z,109.63
2018-01-27T00:53:16.027Z,102.23
2018-01-27T00:55:42.202Z,105.63
2018-01-27T00:58:08.383Z,126.00
2018-01-27T01:00:34.544Z,101.10
2018-01-27T01:03:01.471Z,123.67
2018-01-27T01:05:28.413Z,121.20
2018-01-27T01:07:55.354Z,106.43
2018-01-27T01:10:21.547Z,114.80
2018-01-27T01:12:48.471Z,106.73
2018-01-27T01:15:14.648Z,107.00
2018-01-27T01:17:40.807Z,129.37
2018-01-27T01:20:07.568Z,102.00
2018-01-27T01:22:33.752Z,108.80
2018-01-27T01:25:00.690Z,121.23
2018-01-27T01:27:26.861Z,107.10
2018-01-27T01:29:53.083Z,119.97
2018-01-27T01:32:19.283Z,113.23
2018-01-27T01:34:46.193Z,117.43
2018-01-27T01:37:12.396Z,119.13
2018-01-27T01:39:38.569Z,111.37
2018-01-27T01:42:05.499Z,108.13
2018-01-27T01:44:31.663Z,128.97
2018-01-27T01:46:57.840Z,112.17
2018-01-27T01:49:24.082Z,125.97
2018-01-27T01:51:50.381Z,110.13
2018-01-27T01:54:16.544Z,126.27
2018-01-27T01:56:43.504Z,113.80
2018-01-27T01:59:09.744Z,131.47
2018-01-27T02:01:35.987Z,142.20
2018-01-27T02:04:02.233Z,125.80
2018-01-27T02:06:29.203Z,133.73
2018-01-27T02:08:55.363Z,127.33
2018-01-27T02:11:22.330Z,134.07
2018-01-27T02:13:48.508Z,138.37
2018-01-27T02:16:15.503Z,135.23
2018-01-27T02:18:41.712Z,140.20
2018-01-27T02:21:07.882Z,143.87
2018-01-27T02:23:34.113Z,144.13
2018-01-27T02:26:00.290Z,140.60
2018-01-27T02:28:26.483Z,144.87
2018-01-27T02:30:52.667Z,153.37
2018-01-27T02:33:18.845Z,137.43
2018-01-27T02:35:45.750Z,134.47
2018-01-27T02:38:11.995Z,146.47
2018-01-27T02:40:38.143Z,139.40
2018-01-27T02:43:04.329Z,134.87
2018-01-27T02:45:30.567Z,145.23
2018-01-27T02:47:56.751Z,136.53
2018-01-27T02:50:22.930Z,167.37
2018-01-27T02:52:49.103Z,148.57
2018-01-27T02:55:15.266Z,156.67
2018-01-27T02:57:41.431Z,142.77
2018-01-27T03:00:08.388Z,140.33
2018-01-27T03:02:34.539Z,134.53
2018-01-27T03:05:00.719Z,137.70
2018-01-27T03:07:26.885Z,124.90
2018-01-27T03:09:53.099Z,127.40
2018-01-27T03:12:19.265Z,130.27
2018-01-27T03:14:45.493Z,129.17
2018-01-27T03:17:11.662Z,124.03
2018-01-27T03:19:38.535Z,116.87
2018-01-27T03:22:04.746Z,124.73
2018-01-27T03:24:30.930Z,121.90
2018-01-27T03:26:57.087Z,132.80
2018-01-27T03:29:23.273Z,128.30
2018-01-27T03:31:49.507Z,126.90
2018-01-27T03:34:15.653Z,132.73
2018-01-27T03:36:42.632Z,138.07
2018-01-27T03:39:08.809Z,138.67
2018-01-27T03:41:35.058Z,122.97
2018-01-27T03:44:01.958Z,145.97
2018-01-27T03:46:28.135Z,120.27
2018-01-27T03:48:54.291Z,130.57
2018-01-27T03:51:20.467Z,110.13
2018-01-27T03:53:46.649Z,124.13
2018-01-27T03:56:12.821Z,113.77
2018-01-27T03:58:39.012Z,110.80
2018-01-27T04:01:05.163Z,117.50
2018-01-27T04:03:31.332Z,132.87
2018-01-27T04:05:57.511Z,138.00
2018-01-27T04:08:23.713Z,126.93
2018-01-27T04:10:49.877Z,127.23
2018-01-27T04:13:16.126Z,120.77
2018-01-27T04:15:42.295Z,120.73
2018-01-27T04:18:08.471Z,107.47
2018-01-27T04:20:34.710Z,97.60
2018-01-27T04:23:00.899Z,95.30
2018-01-27T04:25:27.039Z,94.60
2018-01-27T04:27:53.978Z,91.93
2018-01-27T04:30:20.908Z,102.17
2018-01-27T04:32:47.116Z,109.10
2018-01-27T04:35:13.302Z,102.67
2018-01-27T04:37:39.460Z,102.50
2018-01-27T04:40:05.651Z,103.03
2018-01-27T04:42:32.569Z,103.97
2018-01-27T04:44:59.611Z,101.70
2018-01-27T04:47:25.783Z,116.40
2018-01-27T04:49:51.998Z,108.07
2018-01-27T04:52:18.179Z,121.57
2018-01-27T04:54:44.350Z,119.57
2018-01-27T04:57:10.507Z,124.10
2018-01-27T04:59:36.750Z,107.43
2018-01-27T05:02:03.673Z,124.13
2018-01-27T05:04:29.836Z,122.70
2018-01-27T05:06:56.002Z,135.73
2018-01-27T05:09:22.235Z,132.77
2018-01-27T05:11:48.395Z,116.90
2018-01-27T05:14:14.602Z,137.33
2018-01-27T05:16:40.791Z,132.83
2018-01-27T05:19:07.738Z,136.00
2018-01-27T05:21:34.638Z,138.00
2018-01-27T05:24:00.855Z,142.10
2018-01-27T05:26:27.011Z,149.90
2018-01-27T05:28:53.939Z,135.60
2018-01-27T05:31:20.127Z,151.77
2018-01-27T05:33:46.288Z,133.27
2018-01-27T05:36:12.477Z,133.27
2018-01-27T05:38:38.609Z,143.90
2018-01-27T05:41:04.804Z,123.90
2018-01-27T05:43:31.695Z,137.00
2018-01-27T05:45:57.879Z,138.80
2018-01-27T05:48:24.857Z,145.43
2018-01-27T05:50:51.024Z,151.47
2018-01-27T05:53:17.214Z,150.43
2018-01-27T05:55:43.404Z,157.17
2018-01-27T05:58:09.900Z,141.97
2018-01-27T06:00:36.069Z,128.13
2018-01-27T06:03:02.275Z,112.37
2018-01-27T06:05:29.195Z,116.20
2018-01-27T06:07:55.416Z,117.97
2018-01-27T06:10:21.612Z,115.70
2018-01-27T06:12:47.843Z,106.10
2018-01-27T06:15:14.044Z,122.73
2018-01-27T06:17:40.195Z,110.30
2018-01-27T06:20:06.451Z,122.40
2018-01-27T06:22:32.614Z,115.53
2018-01-27T06:24:58.811Z,115.03
2018-01-27T06:27:25.043Z,112.90
2018-01-27T06:29:52.035Z,114.30
2018-01-27T06:32:18.327Z,104.27
2018-01-27T06:34:45.275Z,114.77
2018-01-27T06:37:12.177Z,133.03
2018-01-27T06:39:38.395Z,123.27
2018-01-27T06:42:04.584Z,124.43
2018-01-27T06:44:31.507Z,128.87
2018-01-27T06:46:57.682Z,134.07
2018-01-27T06:49:23.889Z,138.63
2018-01-27T06:51:50.693Z,120.43
2018-01-27T06:54:16.899Z,131.27
2018-01-27T06:56:43.043Z,120.23
2018-01-27T06:59:09.233Z,120.63
2018-01-27T07:01:35.418Z,129.53
2018-01-27T07:04:01.623Z,114.40
2018-01-27T07:06:27.839Z,117.33
2018-01-27T07:08:54.026Z,125.63
2018-01-27T07:11:20.243Z,112.77
2018-01-27T07:13:46.427Z,124.83
2018-01-27T07:16:12.663Z,117.37
2018-01-27T07:18:38.830Z,111.57
2018-01-27T07:21:05.085Z,109.90
2018-01-27T07:23:31.350Z,100.23
2018-01-27T07:25:58.308Z,107.10
2018-01-27T07:28:24.453Z,115.97
2018-01-27T07:30:50.606Z,113.93
2018-01-27T07:33:16.779Z,96.27
2018-01-27T07:35:43.703Z,97.77
2018-01-27T07:38:09.888Z,93.97
2018-01-27T07:40:36.880Z,92.00
2018-01-27T07:43:03.807Z,97.67
2018-01-27T07:45:30.031Z,98.80
2018-01-27T07:47:56.288Z,92.73
2018-01-27T07:50:23.203Z,93.40
2018-01-27T07:52:50.150Z,90.63
2018-01-27T07:55:16.398Z,93.47
2018-01-27T07:57:42.579Z,88.70
2018-01-27T08:00:08.737Z,86.03
2018-01-27T08:02:34.919Z,73.63
2018-01-27T08:05:01.106Z,76.90
2018-01-27T08:07:28.072Z,85.60
2018-01-27T08:09:54.258Z,82.10
2018-01-27T08:12:20.446Z,75.43
2018-01-27T08:14:46.675Z,72.37
2018-01-27T08:17:12.839Z,71.83
2018-01-27T08:19:39.119Z,73.90
2018-01-27T08:22:05.316Z,73.10
2018-01-27T08:24:32.262Z,69.33
2018-01-27T08:26:59.142Z,75.87
2018-01-27T08:29:25.420Z,71.97
2018-01-27T08:31:52.331Z,60.27
2018-01-27T08:34:18.978Z,68.47
2018-01-27T08:36:45.241Z,61.70
2018-01-27T08:39:11.589Z,53.13
2018-01-27T08:41:37.780Z,61.63
2018-01-27T08:44:03.967Z,68.27
2018-01-27T08:46:30.129Z,54.37
2018-01-27T08:48:56.343Z,65.43
2018-01-27T08:51:22.528Z,51.07
2018-01-27T08:53:48.666Z,48.10
2018-01-27T08:56:14.912Z,48.97
2018-01-27T08:58:41.087Z,54.20
2018-01-27T09:01:08.011Z,50.10
2018-01-27T09:03:34.179Z,48.67
2018-01-27T09:06:00.351Z,55.27
2018-01-27T09:08:26.557Z,42.07
2018-01-27T09:10:53.258Z,45.73
2018-01-27T09:13:19.903Z,35.47
2018-01-27T09:15:46.066Z,39.63
2018-01-27T09:18:12.734Z,43.63
2018-01-27T09:20:38.933Z,38.17
2018-01-27T09:23:05.110Z,40.83
2018-01-27T09:25:31.504Z,41.03
2018-01-27T09:27:57.776Z,33.10
2018-01-27T09:30:24.063Z,47.47
2018-01-27T09:32:50.566Z,38.33
2018-01-27T09:35:20.144Z,53.70
2018-01-27T09:37:46.402Z,37.23
2018-01-27T09:40:12.566Z,36.77
2018-01-27T09:42:39.570Z,28.13
2018-01-27T09:45:06.999Z,34.57
2018-01-27T09:47:33.539Z,38.13
2018-01-27T09:49:59.704Z,35.13
2018-01-27T09:52:26.647Z,37.57
2018-01-27T09:54:52.784Z,35.53
2018-01-27T09:57:18.980Z,38.73
2018-01-27T09:59:45.502Z,26.03
2018-01-27T10:02:11.838Z,36.80
2018-01-27T10:04:37.987Z,25.30
2018-01-27T10:07:04.591Z,34.30
2018-01-27T10:09:30.829Z,46.67
2018-01-27T10:11:57.115Z,34.97
2018-01-27T10:14:23.449Z,35.20
2018-01-27T10:16:50.360Z,39.80
2018-01-27T10:19:16.538Z,41.47
2018-01-27T10:21:42.711Z,36.23
2018-01-27T10:24:12.523Z,42.97
2018-01-27T10:26:38.698Z,35.70
2018-01-27T10:29:09.952Z,30.47
2018-01-27T10:31:37.430Z,46.73
2018-01-27T10:34:05.232Z,36.00
2018-01-27T10:36:32.596Z,31.13
2018-01-27T10:38:58.869Z,37.30
2018-01-27T10:41:30.133Z,39.20
2018-01-27T10:43:58.168Z,31.80
2018-01-27T10:46:26.435Z,30.73
2018-01-27T10:48:52.861Z,33.07
2018-01-27T10:51:20.340Z,33.77
2018-01-27T10:53:48.743Z,44.70
2018-01-27T10:56:17.911Z,46.37
2018-01-27T10:58:44.780Z,32.70
2018-01-27T11:01:11.334Z,34.17
2018-01-27T11:03:38.579Z,30.43
2018-01-27T11:06:05.114Z,35.67
2018-01-27T11:08:31.284Z,42.97
2018-01-27T11:10:57.480Z,38.80
2018-01-27T11:13:24.473Z,42.30
2018-01-27T11:15:50.660Z,33.50
2018-01-27T11:18:17.574Z,34.53
2018-01-27T11:20:43.746Z,46.90
2018-01-27T11:23:10.695Z,41.37
2018-01-27T11:25:36.956Z,31.27
2018-01-27T11:28:03.215Z,36.43
2018-01-27T11:30:29.475Z,40.57
2018-01-27T11:32:55.650Z,34.87
2018-01-27T11:35:21.840Z,39.70
2018-01-27T11:37:48.016Z,36.57
2018-01-27T11:40:14.183Z,30.90
2018-01-27T11:42:40.418Z,41.03
2018-01-27T11:45:06.616Z,44.97
2018-01-27T11:47:33.639Z,42.40
2018-01-27T11:49:59.879Z,123.85
2018-01-27T11:52:26.048Z,30.03
2018-01-27T11:54:52.266Z,51.17
2018-01-27T11:57:18.472Z,37.87
2018-01-27T11:59:45.473Z,34.00
2018-01-27T12:02:12.483Z,50.10
2018-01-27T12:04:39.443Z,38.80
2018-01-27T12:07:05.640Z,38.43
2018-01-27T12:09:31.844Z,34.00
2018-01-27T12:11:58.098Z,55.00
2018-01-27T12:14:24.274Z,43.60
2018-01-27T12:16:50.491Z,41.13
2018-01-27T12:19:17.095Z,39.73
2018-01-27T12:21:44.168Z,59.77
2018-01-27T12:24:10.370Z,44.50
2018-01-27T12:26:36.585Z,47.63
2018-01-27T12:29:02.851Z,41.90
2018-01-27T12:31:29.065Z,40.03
2018-01-27T12:33:55.741Z,40.70
2018-01-27T12:36:21.927Z,44.00
2018-01-27T12:38:48.282Z,45.70
2018-01-27T12:41:14.586Z,41.37
2018-01-27T12:43:40.920Z,34.90
2018-01-27T12:46:07.346Z,38.27
2018-01-27T12:48:33.596Z,39.33
2018-01-27T12:50:59.778Z,36.97
2018-01-27T12:53:26.724Z,40.37
2018-01-27T12:55:52.945Z,38.23
2018-01-27T12:58:19.177Z,34.43
2018-01-27T13:00:45.336Z,32.93
2018-01-27T13:03:11.594Z,33.23
2018-01-27T13:05:37.884Z,37.13
2018-01-27T13:08:04.084Z,42.93
2018-01-27T13:10:30.256Z,33.97
2018-01-27T13:12:56.581Z,42.33
2018-01-27T13:15:22.835Z,34.83
2018-01-27T13:17:49.823Z,37.60
2018-01-27T13:20:16.730Z,41.67
2018-01-27T13:22:42.919Z,58.67
2018-01-27T13:25:09.129Z,48.03
2018-01-27T13:27:35.904Z,39.23
2018-01-27T13:30:02.172Z,37.90
2018-01-27T13:32:28.376Z,39.43
2018-01-27T13:34:54.607Z,39.87
2018-01-27T13:37:20.849Z,32.60
2018-01-27T13:39:47.801Z,35.63
2018-01-27T13:42:14.747Z,33.33
2018-01-27T13:44:41.675Z,36.93
2018-01-27T13:47:07.944Z,34.53
2018-01-27T13:49:34.346Z,31.50
2018-01-27T13:52:02.304Z,35.80
2018-01-27T13:54:28.630Z,29.90
2018-01-27T13:56:55.420Z,31.37
2018-01-27T13:59:21.678Z,27.07
2018-01-27T14:01:47.922Z,34.93
2018-01-27T14:04:14.856Z,43.70
2018-01-27T14:06:41.028Z,37.23
2018-01-27T14:09:07.215Z,28.80
2018-01-27T14:11:33.407Z,37.37
2018-01-27T14:13:59.650Z,38.13
2018-01-27T14:16:25.851Z,33.40
2018-01-27T14:18:52.091Z,42.60
2018-01-27T14:21:18.330Z,33.47
2018-01-27T14:23:44.539Z,28.40
2018-01-27T14:26:10.736Z,24.50
2018-01-27T14:28:37.035Z,23.57
2018-01-27T14:31:03.287Z,25.30
2018-01-27T14:33:29.504Z,28.37
2018-01-27T14:35:56.461Z,36.25
2018-01-27T14:38:22.701Z,32.90
2018-01-27T14:40:48.920Z,36.53
2018-01-27T14:43:15.167Z,33.80
2018-01-27T14:45:41.487Z,36.23
2018-01-27T14:48:07.875Z,29.07
2018-01-27T14:50:34.195Z,34.67
2018-01-27T14:53:01.213Z,31.10
2018-01-27T14:55:27.622Z,28.70
2018-01-27T14:57:54.107Z,25.50
2018-01-27T15:00:20.297Z,27.63
2018-01-27T15:02:46.569Z,26.20
2018-01-27T15:05:13.755Z,27.57
2018-01-27T15:07:40.052Z,30.43
2018-01-27T15:10:07.082Z,34.23
2018-01-27T15:12:33.409Z,34.30
2018-01-27T15:15:00.383Z,28.07
2018-01-27T15:17:26.615Z,33.70
2018-01-27T15:19:52.866Z,33.77
2018-01-27T15:22:19.127Z,39.33
2018-01-27T15:24:45.414Z,36.37
2018-01-27T15:27:11.946Z,27.93
2018-01-27T15:29:39.972Z,31.73
2018-01-27T15:32:06.290Z,27.67
2018-01-27T15:34:34.118Z,34.20
2018-01-27T15:37:00.340Z,34.30
2018-01-27T15:39:26.600Z,32.87
2018-01-27T15:41:53.756Z,34.07
2018-01-27T15:44:20.003Z,35.43
2018-01-27T15:46:47.029Z,39.87
2018-01-27T15:49:13.359Z,44.17
2018-01-27T15:51:39.663Z,33.63
2018-01-27T15:54:06.055Z,36.97
2018-01-27T15:56:32.469Z,38.77
2018-01-27T15:58:58.762Z,29.10
2018-01-27T16:01:25.028Z,36.17
2018-01-27T16:03:52.084Z,43.57
2018-01-27T16:06:18.475Z,34.83
2018-01-27T16:08:44.745Z,35.67
2018-01-27T16:11:11.707Z,35.90
2018-01-27T16:13:38.002Z,39.10
2018-01-27T16:16:04.251Z,48.63
2018-01-27T16:18:31.235Z,36.60
2018-01-27T16:20:57.466Z,36.80
2018-01-27T16:23:23.715Z,48.10
2018-01-27T16:25:50.700Z,43.73
2018-01-27T16:28:16.947Z,41.93
2018-01-27T16:30:43.747Z,39.30
2018-01-27T16:33:09.910Z,36.73
2018-01-27T16:35:36.111Z,46.87
2018-01-27T16:38:02.406Z,38.43
2018-01-27T16:40:28.650Z,44.83
2018-01-27T16:42:54.867Z,45.43
2018-01-27T16:45:21.072Z,36.73
2018-01-27T16:47:50.390Z,48.10
2018-01-27T16:50:16.605Z,46.67
2018-01-27T16:52:43.578Z,51.03
2018-01-27T16:55:09.779Z,48.57
2018-01-27T16:57:37.003Z,49.30
2018-01-27T17:00:03.302Z,71.30
2018-01-27T17:02:30.238Z,38.90
2018-01-27T17:04:56.414Z,43.30
2018-01-27T17:07:22.620Z,42.73
2018-01-27T17:09:48.879Z,55.37
2018-01-27T17:12:15.246Z,44.33
2018-01-27T17:14:41.415Z,52.97
2018-01-27T17:17:07.608Z,52.93
2018-01-27T17:19:34.570Z,50.03
2018-01-27T17:22:00.792Z,52.80
2018-01-27T17:24:26.973Z,50.07
2018-01-27T17:26:53.147Z,54.97
2018-01-27T17:29:19.371Z,55.77
2018-01-27T17:31:45.573Z,54.00
2018-01-27T17:34:11.763Z,53.87
2018-01-27T17:36:38.038Z,58.27
2018-01-27T17:39:04.284Z,49.87
2018-01-27T17:41:30.543Z,48.63
2018-01-27T17:43:56.795Z,51.30
2018-01-27T17:46:22.991Z,51.87
2018-01-27T17:48:49.326Z,52.60
2018-01-27T17:51:15.861Z,50.87
2018-01-27T17:53:42.146Z,53.40
2018-01-27T17:56:08.410Z,55.43
2018-01-27T17:58:34.893Z,55.60
2018-01-27T18:01:01.155Z,54.67
2018-01-27T18:03:27.362Z,49.80
2018-01-27T18:05:54.454Z,53.67
2018-01-27T18:08:20.624Z,56.90
2018-01-27T18:10:46.916Z,56.40
2018-01-27T18:13:13.177Z,56.33
2018-01-27T18:15:39.431Z,74.70
2018-01-27T18:18:05.726Z,52.90
2018-01-27T18:20:31.881Z,57.90
2018-01-27T18:22:58.146Z,55.17
2018-01-27T18:25:24.350Z,61.53
2018-01-27T18:27:50.615Z,56.53
2018-01-27T18:30:16.805Z,51.23
2018-01-27T18:32:43.124Z,51.50
2018-01-27T18:35:09.331Z,59.83
2018-01-27T18:37:36.314Z,59.67
2018-01-27T18:40:02.546Z,61.57
2018-01-27T18:42:28.822Z,65.93
2018-01-27T18:44:56.150Z,61.17
2018-01-27T18:47:23.472Z,70.00
2018-01-27T18:49:50.097Z,71.73
2018-01-27T18:52:16.546Z,53.90
2018-01-27T18:54:42.786Z,57.63
2018-01-27T18:57:09.047Z,67.17
2018-01-27T18:59:35.262Z,64.30
2018-01-27T19:02:01.507Z,66.27
2018-01-27T19:04:27.692Z,65.17
2018-01-27T19:06:54.776Z,60.73
2018-01-27T19:09:20.976Z,59.57
2018-01-27T19:11:48.430Z,67.53
2018-01-27T19:14:14.687Z,72.90
2018-01-27T19:16:40.935Z,64.90
2018-01-27T19:19:09.072Z,68.97
2018-01-27T19:21:35.364Z,74.10
2018-01-27T19:24:01.564Z,84.50
2018-01-27T19:26:28.058Z,65.13
2018-01-27T19:28:54.303Z,62.13
2018-01-27T19:31:21.318Z,75.60
2018-01-27T19:33:47.539Z,70.50
2018-01-27T19:36:13.799Z,57.80
2018-01-27T19:38:40.082Z,81.57
2018-01-27T19:41:06.275Z,79.00
2018-01-27T19:43:32.562Z,67.40
2018-01-27T19:45:58.810Z,73.63
2018-01-27T19:48:25.886Z,68.43
2018-01-27T19:50:52.875Z,82.07
2018-01-27T19:53:22.314Z,64.93
2018-01-27T19:55:50.470Z,73.50
2018-01-27T19:58:17.087Z,69.77
2018-01-27T20:00:43.286Z,90.37
2018-01-27T20:03:11.743Z,71.73
2018-01-27T20:05:38.685Z,75.60
2018-01-27T20:08:04.915Z,72.27
2018-01-27T20:10:31.579Z,82.97
2018-01-27T20:12:57.894Z,82.93
2018-01-27T20:15:24.141Z,79.40
2018-01-27T20:17:50.400Z,75.70
2018-01-27T20:20:16.720Z,84.00
2018-01-27T20:22:42.911Z,82.87
2018-01-27T20:25:09.475Z,69.57
2018-01-27T20:27:35.657Z,77.83
2018-01-27T20:30:02.664Z,77.77
2018-01-27T20:32:29.186Z,88.97
2018-01-27T20:34:55.757Z,73.63
2018-01-27T20:37:21.945Z,75.20
2018-01-27T20:39:48.278Z,79.50
2018-01-27T20:42:14.826Z,70.23
2018-01-27T20:44:41.371Z,78.87
2018-01-27T20:47:07.699Z,82.80
2018-01-27T20:49:33.932Z,91.20
2018-01-27T20:52:00.345Z,73.77
2018-01-27T20:54:27.550Z,87.77
2018-01-27T20:56:54.681Z,93.10
2018-01-27T20:59:21.795Z,87.20
2018-01-27T21:01:48.755Z,75.77
2018-01-27T21:04:14.943Z,82.43
2018-01-27T21:06:41.218Z,79.37
2018-01-27T21:09:07.429Z,86.27
2018-01-27T21:11:34.674Z,85.00
2018-01-27T21:14:00.956Z,75.63
2018-01-27T21:16:27.296Z,95.47
2018-01-27T21:18:53.679Z,82.27
2018-01-27T21:21:20.684Z,83.63
2018-01-27T21:23:46.912Z,86.60
2018-01-27T21:26:13.128Z,83.63
2018-01-27T21:28:39.374Z,83.50
2018-01-27T21:31:05.635Z,102.73
2018-01-27T21:33:31.863Z,88.93
2018-01-27T21:35:58.832Z,82.03
2018-01-27T21:38:25.784Z,84.47
2018-01-27T21:40:51.991Z,72.93
2018-01-27T21:43:18.512Z,75.50
2018-01-27T21:45:45.322Z,81.53
2018-01-27T21:48:11.878Z,80.60
2018-01-27T21:50:38.920Z,74.97
2018-01-27T21:53:05.285Z,72.30
2018-01-27T21:55:32.311Z,85.03
2018-01-27T21:57:58.515Z,83.97
2018-01-27T22:00:24.783Z,68.93
2018-01-27T22:02:51.844Z,80.43
2018-01-27T22:05:18.776Z,73.57
2018-01-27T22:07:45.215Z,87.07
2018-01-27T22:10:11.620Z,73.20
2018-01-27T22:12:37.966Z,83.40
2018-01-27T22:15:04.969Z,67.00
2018-01-27T22:17:31.479Z,79.30
2018-01-27T22:19:57.715Z,68.87
2018-01-27T22:22:24.176Z,67.43
2018-01-27T22:24:51.050Z,63.83
2018-01-27T22:27:17.282Z,66.23
2018-01-27T22:29:44.486Z,63.27
2018-01-27T22:32:10.743Z,70.23
2018-01-27T22:34:36.918Z,65.03
2018-01-27T22:37:03.521Z,63.87
2018-01-27T22:39:29.718Z,60.40
2018-01-27T22:41:56.154Z,66.30
2018-01-27T22:44:22.419Z,64.23
2018-01-27T22:46:49.221Z,60.77
2018-01-27T22:49:15.601Z,67.67
2018-01-27T22:51:41.963Z,56.70
2018-01-27T22:54:08.171Z,58.10
2018-01-27T22:56:34.386Z,55.33
2018-01-27T22:59:01.547Z,52.03
2018-01-27T23:01:27.751Z,58.67
2018-01-27T23:03:54.041Z,50.77
2018-01-27T23:06:20.591Z,48.73
2018-01-27T23:08:46.857Z,56.13
2018-01-27T23:11:13.178Z,50.00
2018-01-27T23:13:39.363Z,54.53
2018-01-27T23:16:05.620Z,48.53
2018-01-27T23:18:31.860Z,46.57
2018-01-27T23:20:58.082Z,49.63
2018-01-27T23:23:24.371Z,46.47
2018-01-27T23:25:50.662Z,48.83
2018-01-27T23:28:16.891Z,49.53
2018-01-27T23:30:43.073Z,40.93
2018-01-27T23:33:09.273Z,41.50
2018-01-27T23:35:35.446Z,44.17
2018-01-27T23:38:01.639Z,38.63
2018-01-27T23:40:27.820Z,34.47
2018-01-27T23:42:54.018Z,41.07
2018-01-27T23:45:20.180Z,35.47
2018-01-27T23:47:46.357Z,40.43
2018-01-27T23:50:12.640Z,41.37
2018-01-27T23:52:38.871Z,40.37
2018-01-27T23:55:05.055Z,30.60
2018-01-27T23:57:31.232Z,35.87
2018-01-27T23:59:57.484Z,36.57
